Time;durP1;ratioP1;P1;durP2;ratioP2;P2;SDS_P1;SDS_P2;PMS_P1;PMS_P2;Temp;Humidity;BMP_temperature;BMP_pressure;BME280_temperature;BME280_humidity;BME280_pressure;Samples;Min_cycle;Max_cycle;Signal;HPM_P1;HPM_P2
2022/09/05 00:00:18;;;;;;;14.35;7.62;;;;;;;14.70;71.27;101165.31;2042342;87;27610;-71
2022/09/05 00:03:58;;;;;;;10.75;6.60;;;;;;;14.71;71.06;101164.36;2042334;87;27690;-74
2022/09/05 00:07:53;;;;;;;8.83;6.75;;;;;;;14.72;71.05;101164.76;2041853;87;29647;-64
2022/09/05 00:11:48;;;;;;;8.98;6.30;;;;;;;14.74;71.14;101165.52;2042293;87;27912;-64
2022/09/05 00:15:37;;;;;;;9.65;7.08;;;;;;;14.74;71.07;101165.52;2042528;87;27849;-63
2022/09/05 00:19:37;;;;;;;9.03;6.62;;;;;;;14.72;71.12;101171.50;2041907;87;27631;-78
2022/09/05 00:23:24;;;;;;;10.03;6.95;;;;;;;14.70;71.14;101176.56;1939426;91;27783;-76
2022/09/05 00:27:04;;;;;;;9.18;6.40;;;;;;;14.67;71.04;101174.88;1898480;93;30633;-78
2022/09/05 00:30:24;;;;;;;7.78;6.92;;;;;;;14.64;71.37;101171.48;1930584;92;27731;-82
2022/09/05 00:34:15;;;;;;;10.58;7.33;;;;;;;14.63;71.14;101174.63;1930894;91;27825;-80
2022/09/05 00:37:44;;;;;;;9.78;7.67;;;;;;;14.63;71.19;101174.63;1930695;92;27890;-68
2022/09/05 00:41:09;;;;;;;9.58;7.65;;;;;;;14.63;71.35;101176.47;1930435;91;27778;-66
2022/09/05 00:44:32;;;;;;;9.50;7.37;;;;;;;14.63;71.22;101176.47;1897439;93;28842;-74
2022/09/05 00:48:03;;;;;;;10.75;7.50;;;;;;;14.59;71.21;101173.05;1930211;92;28119;-73
2022/09/05 00:51:37;;;;;;;9.50;7.20;;;;;;;14.56;71.32;101175.92;1958445;90;27822;-75
2022/09/05 00:55:37;;;;;;;8.18;7.37;;;;;;;14.55;71.27;101172.34;1959830;90;27687;-76
2022/09/05 00:59:19;;;;;;;9.53;7.45;;;;;;;14.52;71.33;101173.84;2036551;87;27798;-77
2022/09/05 01:03:09;;;;;;;13.15;7.35;;;;;;;14.51;71.37;101168.55;2036389;87;28786;-73
2022/09/05 01:07:00;;;;;;;9.93;7.45;;;;;;;14.49;71.48;101169.09;2036485;87;27891;-75
2022/09/05 01:10:51;;;;;;;10.32;7.45;;;;;;;14.42;71.64;101170.75;2036572;87;27710;-63
2022/09/05 01:14:51;;;;;;;7.87;7.08;;;;;;;14.35;71.58;101164.41;2036470;87;27648;-70
2022/09/05 01:18:39;;;;;;;9.05;7.08;;;;;;;14.30;71.66;101167.84;2036473;87;28286;-75
2022/09/05 01:22:39;;;;;;;11.15;7.33;;;;;;;14.24;71.90;101174.39;1929702;92;28875;-73
2022/09/05 01:26:16;;;;;;;8.63;7.55;;;;;;;14.20;72.00;101171.48;1936052;90;27768;-73
2022/09/05 01:29:55;;;;;;;10.85;7.53;;;;;;;14.13;72.11;101172.27;1904185;93;27865;-78
2022/09/05 01:33:42;;;;;;;10.95;7.05;;;;;;;14.08;72.31;101171.62;1935220;91;28296;-73
2022/09/05 01:37:41;;;;;;;9.03;7.50;;;;;;;14.06;72.32;101178.90;1904366;93;28338;-78
2022/09/05 01:41:15;;;;;;;8.73;7.30;;;;;;;14.06;72.34;101181.59;1935292;91;28847;-72
2022/09/05 01:45:02;;;;;;;11.05;8.48;;;;;;;14.04;72.35;101177.64;1915819;92;27736;-72
2022/09/05 01:48:42;;;;;;;9.38;7.25;;;;;;;14.02;72.45;101181.34;1935326;91;27744;-80
2022/09/05 01:52:59;;;;;;;9.23;7.22;;;;;;;13.98;72.60;101182.84;1935373;91;27703;-67
2022/09/05 01:57:03;;;;;;;9.58;7.55;;;;;;;13.98;72.53;101184.19;1967556;90;27804;-70
2022/09/05 02:00:30;;;;;;;10.45;8.20;;;;;;;13.96;72.59;101187.91;1935535;91;28806;-72
2022/09/05 02:04:22;;;;;;;10.55;8.20;;;;;;;13.96;72.62;101185.22;2009536;88;27857;-71
2022/09/05 02:08:08;;;;;;;12.50;8.38;;;;;;;13.94;72.75;101183.08;2009560;88;27714;-64
2022/09/05 02:11:58;;;;;;;8.58;7.47;;;;;;;13.92;72.65;101187.20;2009468;88;27669;-72
2022/09/05 02:15:27;;;;;;;13.68;7.87;;;;;;;13.90;72.79;101187.75;2027032;87;27893;-75
2022/09/05 02:19:13;;;;;;;9.90;7.53;;;;;;;13.89;72.86;101190.53;2042362;87;30689;-77
2022/09/05 02:22:44;;;;;;;9.43;8.00;;;;;;;13.87;73.05;101196.47;2042499;87;37250;-73
2022/09/05 02:26:21;;;;;;;8.30;7.40;;;;;;;13.85;72.96;101195.66;2009481;87;27649;-65
2022/09/05 02:30:04;;;;;;;9.05;7.90;;;;;;;13.84;72.88;101188.04;1992778;89;27745;-69
2022/09/05 02:33:31;;;;;;;13.28;8.98;;;;;;;13.86;73.08;101192.02;1992549;89;28667;-67
2022/09/05 02:37:24;;;;;;;9.13;7.92;;;;;;;13.86;73.01;101194.72;1992483;89;28806;-70
2022/09/05 02:40:49;;;;;;;12.50;8.05;;;;;;;13.86;73.00;101195.58;1992526;89;27682;-71
2022/09/05 02:45:07;;;;;;;12.35;8.13;;;;;;;13.86;73.01;101199.61;1992717;89;27725;-64
2022/09/05 02:48:55;;;;;;;9.78;7.67;;;;;;;13.84;73.15;101204.20;1992866;89;27690;-77
2022/09/05 02:52:18;;;;;;;10.35;8.03;;;;;;;13.82;73.24;101200.70;1992473;89;27703;-65
2022/09/05 02:56:13;;;;;;;10.98;7.28;;;;;;;13.81;73.08;101195.80;1992430;89;28825;-63
2022/09/05 02:59:47;;;;;;;8.80;7.65;;;;;;;13.80;73.19;101194.06;1992490;89;27643;-73
2022/09/05 03:03:35;;;;;;;9.60;8.28;;;;;;;13.79;73.30;101195.49;1992665;89;36359;-70
2022/09/05 03:07:12;;;;;;;8.38;7.47;;;;;;;13.76;73.11;101191.59;1990935;89;27698;-69
2022/09/05 03:11:03;;;;;;;10.72;7.55;;;;;;;13.72;72.94;101191.34;1990885;89;27702;-75
2022/09/05 03:14:59;;;;;;;9.78;7.75;;;;;;;13.67;73.20;101192.42;1990879;89;28812;-65
2022/09/05 03:18:57;;;;;;;8.77;7.87;;;;;;;13.63;73.27;101196.70;1991364;89;27716;-66
2022/09/05 03:23:03;;;;;;;8.90;8.00;;;;;;;13.57;73.43;101195.66;1991127;89;27644;-71
2022/09/05 03:26:55;;;;;;;10.65;7.90;;;;;;;13.49;73.40;101199.58;1998167;88;27649;-66
2022/09/05 03:30:26;;;;;;;11.57;7.83;;;;;;;13.42;73.50;101199.95;2007599;88;27712;-75
2022/09/05 03:34:16;;;;;;;11.48;8.20;;;;;;;13.31;73.72;101195.92;2007525;88;28858;-75
2022/09/05 03:38:09;;;;;;;9.13;8.15;;;;;;;13.30;73.74;101210.77;2022473;87;27700;-63
2022/09/05 03:41:52;;;;;;;20.95;7.97;;;;;;;13.26;73.79;101211.39;2009275;88;27737;-66
2022/09/05 03:45:35;;;;;;;12.25;8.25;;;;;;;13.23;74.04;101215.56;2009249;88;27626;-70
2022/09/05 03:49:06;;;;;;;12.65;8.15;;;;;;;13.21;73.89;101221.48;2009196;88;28639;-63
2022/09/05 03:53:12;;;;;;;10.05;8.75;;;;;;;13.22;74.05;101220.55;1978652;89;30719;-65
2022/09/05 03:57:10;;;;;;;14.23;8.63;;;;;;;13.21;74.30;101221.03;1979197;89;27723;-63
2022/09/05 04:00:35;;;;;;;10.78;8.28;;;;;;;13.20;74.25;101226.01;1964607;90;27756;-67
2022/09/05 04:03:59;;;;;;;11.90;7.78;;;;;;;13.21;74.45;101229.56;1996699;88;27796;-63
2022/09/05 04:07:29;;;;;;;12.40;9.13;;;;;;;13.21;74.18;101230.91;1964597;90;32389;-67
2022/09/05 04:11:06;;;;;;;9.45;8.35;;;;;;;13.24;74.17;101236.64;1996662;88;28810;-64
2022/09/05 04:14:54;;;;;;;7.97;7.10;;;;;;;13.26;74.12;101238.30;1964492;90;27837;-65
2022/09/05 04:18:25;;;;;;;10.05;7.35;;;;;;;13.29;74.14;101238.17;1996738;89;27754;-63
2022/09/05 04:22:05;;;;;;;10.43;7.25;;;;;;;13.33;74.26;101243.79;1964516;90;27789;-63
2022/09/05 04:26:04;;;;;;;9.15;7.58;;;;;;;13.38;74.12;101246.30;1996674;89;28774;-63
2022/09/05 04:29:46;;;;;;;9.93;7.33;;;;;;;13.43;74.22;101248.80;1994460;88;28885;-63
2022/09/05 04:33:26;;;;;;;8.50;7.45;;;;;;;13.48;74.00;101252.16;2008967;88;28930;-68
2022/09/05 04:37:00;;;;;;;8.28;7.47;;;;;;;13.53;74.11;101259.52;2009245;88;27712;-63
2022/09/05 04:40:53;;;;;;;9.53;7.37;;;;;;;13.60;73.86;101256.95;2009192;88;27620;-63
2022/09/05 04:44:21;;;;;;;12.18;7.90;;;;;;;13.69;73.76;101261.04;2009188;88;28250;-63
2022/09/05 04:47:46;;;;;;;10.53;8.30;;;;;;;13.76;73.65;101252.19;2009129;88;28794;-65
2022/09/05 04:51:12;;;;;;;;;;;;;;;13.83;73.51;101259.91;2011671;88;27666;-70
2022/09/05 04:54:36;;;;;;;10.70;7.65;;;;;;;13.91;73.39;101261.34;2009322;88;27750;-64
2022/09/05 04:58:12;;;;;;;11.00;8.03;;;;;;;13.98;73.23;101270.88;2024952;87;27691;-66
2022/09/05 05:01:43;;;;;;;13.90;7.62;;;;;;;14.06;73.09;101270.05;2042192;87;27829;-69
2022/09/05 05:05:12;;;;;;;13.18;8.25;;;;;;;14.17;72.96;101278.08;2042033;87;28838;-70
2022/09/05 05:09:01;;;;;;;8.25;7.40;;;;;;;14.27;72.90;101272.62;2042058;87;27718;-62
2022/09/05 05:12:41;;;;;;;11.53;6.90;;;;;;;14.39;72.60;101267.98;2042106;87;28112;-68
2022/09/05 05:16:20;;;;;;;11.10;8.43;;;;;;;14.54;72.53;101268.16;2041934;87;27671;-77
2022/09/05 05:19:47;;;;;;;9.28;7.60;;;;;;;14.69;72.50;101274.61;2041754;87;27755;-62
2022/09/05 05:23:14;;;;;;;8.63;7.42;;;;;;;14.83;72.19;101282.00;2026218;87;28790;-65
2022/09/05 05:26:38;;;;;;;12.78;6.90;;;;;;;14.93;71.83;101283.25;2037953;87;27724;-74
2022/09/05 05:30:07;;;;;;;8.40;7.22;;;;;;;15.02;71.71;101282.79;2037010;87;27711;-62
2022/09/05 05:33:32;;;;;;;10.63;7.72;;;;;;;15.09;71.07;101287.38;2036635;87;27766;-69
2022/09/05 05:37:00;;;;;;;11.08;6.87;;;;;;;15.07;70.70;101286.59;2036877;87;27739;-63
2022/09/05 05:40:26;;;;;;;10.38;7.80;;;;;;;15.10;70.58;101285.08;2036710;87;28856;-62
2022/09/05 05:43:47;;;;;;;12.37;8.25;;;;;;;15.15;70.57;101281.64;2036755;87;27767;-62
2022/09/05 05:47:20;;;;;;;11.28;7.12;;;;;;;15.25;70.63;101277.12;2036862;87;27660;-68
2022/09/05 05:51:13;;;;;;;11.65;7.58;;;;;;;15.36;70.46;101278.75;2034956;87;27712;-69
2022/09/05 05:54:45;;;;;;;15.48;7.55;;;;;;;15.26;70.17;101245.12;2014457;87;28748;-68
2022/09/05 05:58:22;;;;;;;12.88;6.95;;;;;;;15.48;69.88;101290.72;2036226;87;28882;-66
2022/09/05 06:02:16;;;;;;;10.18;7.20;;;;;;;15.52;69.92;101296.36;2036683;87;27735;-62
2022/09/05 06:05:43;;;;;;;11.95;7.05;;;;;;;15.61;69.58;101297.19;2026881;87;27710;-65
2022/09/05 06:09:37;;;;;;;9.30;7.00;;;;;;;15.72;69.54;101301.15;2036714;87;27681;-68
2022/09/05 06:13:03;;;;;;;10.98;6.45;;;;;;;15.87;69.66;101299.44;2036671;87;27647;-63
2022/09/05 06:16:58;;;;;;;11.20;6.85;;;;;;;16.12;69.18;101296.72;1988120;89;28856;-69
2022/09/05 06:20:26;;;;;;;10.30;6.63;;;;;;;16.26;68.66;101296.79;2030217;87;27827;-69
2022/09/05 06:24:15;;;;;;;8.63;6.37;;;;;;;16.41;68.35;101300.42;2009085;87;27802;-66
2022/09/05 06:27:52;;;;;;;14.85;6.90;;;;;;;16.90;67.69;101302.06;1999543;87;27755;-63
2022/09/05 06:31:20;;;;;;;7.85;6.28;;;;;;;16.90;67.69;101302.06;1966483;90;27816;-63
2022/09/05 06:34:46;;;;;;;10.35;6.83;;;;;;;17.14;67.45;101305.61;2029347;87;30642;-63
2022/09/05 06:38:49;;;;;;;9.93;6.10;;;;;;;17.39;66.68;101304.11;2038676;87;27765;-63
2022/09/05 06:42:23;;;;;;;8.53;6.45;;;;;;;17.69;66.04;101313.51;2038667;87;27809;-66
2022/09/05 06:45:56;;;;;;;9.03;6.22;;;;;;;18.10;65.68;101311.84;2038526;87;27893;-67
2022/09/05 06:49:30;;;;;;;6.15;5.58;;;;;;;18.46;64.97;101303.57;2038595;87;27786;-64
2022/09/05 06:53:22;;;;;;;7.62;6.50;;;;;;;18.82;64.51;101312.91;1962891;90;28853;-64
2022/09/05 06:57:15;;;;;;;7.12;5.95;;;;;;;19.13;63.82;101309.47;1937804;90;27762;-65
2022/09/05 07:00:47;;;;;;;8.20;5.78;;;;;;;19.33;62.96;101309.92;1937850;91;27735;-64
2022/09/05 07:04:31;;;;;;;6.60;4.80;;;;;;;19.59;62.59;101310.78;1937797;91;27758;-63
2022/09/05 07:07:59;;;;;;;5.83;5.22;;;;;;;19.73;60.84;101312.98;1937763;91;27778;-79
2022/09/05 07:11:25;;;;;;;6.58;5.37;;;;;;;19.82;60.46;101312.81;1975443;87;28808;-63
2022/09/05 07:14:56;;;;;;;7.25;5.60;;;;;;;19.92;60.18;101313.94;2030705;87;27682;-63
2022/09/05 07:18:21;;;;;;;7.75;5.42;;;;;;;20.00;60.27;101322.39;2028248;87;27784;-64
2022/09/05 07:21:46;;;;;;;10.30;5.17;;;;;;;20.26;59.53;101316.88;2030786;87;27719;-63
2022/09/05 07:25:12;;;;;;;9.78;5.25;;;;;;;20.47;60.01;101318.95;2030510;87;28696;-68
2022/09/05 07:28:34;;;;;;;8.00;5.85;;;;;;;20.68;58.51;101317.84;2019339;87;28852;-64
2022/09/05 07:31:55;;;;;;;5.83;5.10;;;;;;;20.89;57.87;101326.72;2044690;87;27731;-62
2022/09/05 07:35:23;;;;;;;5.12;4.62;;;;;;;21.04;57.18;101332.85;2043057;85;28249;-65
2022/09/05 07:38:49;;;;;;;6.03;4.50;;;;;;;21.12;57.31;101334.98;2047204;85;27699;-65
2022/09/05 07:42:13;;;;;;;7.83;4.60;;;;;;;21.38;56.99;101334.30;2046395;85;27959;-64
2022/09/05 07:45:32;;;;;;;;;;;;;;;21.74;57.45;101333.75;2047652;85;28833;-65
2022/09/05 07:49:04;;;;;;;4.85;4.35;;;;;;;22.10;55.40;101330.34;2045573;85;27729;-65
2022/09/05 07:52:26;;;;;;;5.25;4.42;;;;;;;22.29;55.99;101331.08;2043214;85;27685;-65
2022/09/05 07:55:56;;;;;;;4.60;4.20;;;;;;;22.52;56.46;101335.13;2046435;85;27962;-73
2022/09/05 07:59:17;;;;;;;7.67;4.42;;;;;;;22.72;53.83;101337.56;2048915;85;28706;-65
2022/09/05 08:02:45;;;;;;;5.60;3.95;;;;;;;22.95;55.06;101329.75;2046821;85;28865;-69
2022/09/05 08:06:10;;;;;;;9.85;4.92;;;;;;;23.29;53.52;101326.34;2030356;86;27702;-67
2022/09/05 08:09:40;;;;;;;8.00;4.78;;;;;;;23.35;52.39;101324.45;2002632;88;27704;-69
2022/09/05 08:13:07;;;;;;;6.25;4.47;;;;;;;23.49;52.98;101328.72;2042304;87;28131;-67
2022/09/05 08:16:26;;;;;;;5.78;4.35;;;;;;;23.82;52.35;101323.97;2044940;86;27664;-71
2022/09/05 08:20:25;;;;;;;6.33;3.77;;;;;;;23.96;51.75;101325.48;2043588;87;28777;-71
2022/09/05 08:24:12;;;;;;;4.45;4.03;;;;;;;24.18;51.80;101324.02;2045982;85;28406;-68
2022/09/05 08:28:05;;;;;;;5.42;4.28;;;;;;;24.54;51.13;101314.78;2031507;86;27724;-73
2022/09/05 08:31:39;;;;;;;7.45;4.40;;;;;;;24.55;50.10;101317.89;2027119;87;27708;-73
2022/09/05 08:35:05;;;;;;;4.75;4.03;;;;;;;24.60;49.53;101316.08;2027148;87;28693;-67
2022/09/05 08:38:25;;;;;;;9.18;4.53;;;;;;;24.56;48.39;101315.52;2027081;87;30642;-76
2022/09/05 08:42:24;;;;;;;8.38;4.35;;;;;;;24.31;47.60;101314.19;2027125;87;27850;-67
2022/09/05 08:45:49;;;;;;;5.22;3.98;;;;;;;23.99;47.43;101317.52;2027211;87;27692;-67
2022/09/05 08:49:40;;;;;;;5.83;4.12;;;;;;;23.51;48.45;101309.42;2027172;87;27696;-67
2022/09/05 08:53:26;;;;;;;6.25;3.90;;;;;;;23.29;47.82;101305.84;2026956;87;27792;-68
2022/09/05 08:56:52;;;;;;;;;;;;;;;23.00;49.16;101305.13;2026978;87;28812;-69
2022/09/05 09:00:18;;;;;;;6.85;4.60;;;;;;;22.91;48.41;101298.59;2026302;87;27721;-67
2022/09/05 09:04:11;;;;;;;9.70;4.58;;;;;;;22.80;48.76;101291.83;2033803;87;27669;-67
2022/09/05 09:07:45;;;;;;;4.85;3.90;;;;;;;22.85;49.10;101290.06;2043559;86;27742;-67
2022/09/05 09:11:13;;;;;;;4.42;3.67;;;;;;;22.85;48.07;101291.42;2024107;87;27733;-67
2022/09/05 09:14:37;;;;;;;7.47;4.67;;;;;;;22.69;48.69;101278.20;2031262;86;28842;-68
2022/09/05 09:17:58;;;;;;;6.90;4.30;;;;;;;22.65;48.47;101279.48;2031670;87;27710;-68
2022/09/05 09:21:38;;;;;;;4.47;3.83;;;;;;;22.59;49.17;101269.45;2033257;87;28159;-71
2022/09/05 09:25:17;;;;;;;5.83;3.95;;;;;;;22.70;49.11;101272.62;1954777;91;27879;-70
2022/09/05 09:28:57;;;;;;;8.30;4.22;;;;;;;22.68;48.62;101265.55;1930764;91;28237;-68
2022/09/05 09:32:21;;;;;;;4.00;3.70;;;;;;;22.67;48.06;101263.84;1964781;90;28832;-66
2022/09/05 09:35:51;;;;;;;8.45;3.80;;;;;;;22.65;48.37;101264.47;1964864;90;27687;-69
2022/09/05 09:40:01;;;;;;;7.83;4.12;;;;;;;22.55;47.98;101273.42;1964929;90;27682;-67
2022/09/05 09:43:26;;;;;;;4.37;3.30;;;;;;;22.43;47.79;101271.23;1964948;90;28204;-73
2022/09/05 09:46:47;;;;;;;3.87;3.58;;;;;;;22.33;47.99;101272.13;1934263;92;28088;-68
2022/09/05 09:50:33;;;;;;;6.28;3.55;;;;;;;22.26;48.31;101260.35;1934027;92;28740;-65
2022/09/05 09:54:21;;;;;;;7.45;4.50;;;;;;;22.25;47.58;101266.81;1933922;92;27800;-67
2022/09/05 09:57:58;;;;;;;5.28;3.90;;;;;;;22.29;47.71;101267.41;1934145;92;27954;-70
2022/09/05 10:01:37;;;;;;;5.92;4.08;;;;;;;22.27;47.58;101271.64;1951190;89;27802;-68
2022/09/05 10:05:22;;;;;;;6.87;3.52;;;;;;;22.24;47.58;101266.44;1994130;89;27617;-66
2022/09/05 10:09:07;;;;;;;4.42;4.03;;;;;;;22.23;48.10;101264.70;1996931;87;28812;-67
2022/09/05 10:12:47;;;;;;;5.03;3.52;;;;;;;22.37;48.23;101264.03;1989968;87;27677;-64
2022/09/05 10:16:52;;;;;;;4.53;3.77;;;;;;;22.46;47.17;101249.65;1995145;88;27724;-66
2022/09/05 10:20:20;;;;;;;3.25;2.95;;;;;;;22.49;47.52;101258.95;1996421;87;27733;-65
2022/09/05 10:23:54;;;;;;;3.65;3.08;;;;;;;22.53;47.03;101262.28;1997378;87;28033;-67
2022/09/05 10:27:39;;;;;;;4.03;3.62;;;;;;;22.53;46.87;101247.25;1995679;88;29765;-67
2022/09/05 10:31:21;;;;;;;6.78;3.77;;;;;;;22.52;47.00;101246.89;2029100;86;27703;-66
2022/09/05 10:34:46;;;;;;;4.03;3.30;;;;;;;22.49;47.32;101250.76;2025541;86;28365;-65
2022/09/05 10:38:26;;;;;;;7.50;3.90;;;;;;;22.41;46.98;101256.84;2038063;86;27679;-63
2022/09/05 10:42:01;;;;;;;5.05;3.33;;;;;;;22.36;47.26;101246.80;1991526;88;28681;-64
2022/09/05 10:45:46;;;;;;;3.50;3.20;;;;;;;22.30;46.08;101243.20;2002615;88;30644;-63
2022/09/05 10:49:09;;;;;;;5.05;3.00;;;;;;;22.17;46.71;101246.13;2002688;88;27656;-64
2022/09/05 10:52:41;;;;;;;5.37;3.47;;;;;;;22.16;46.21;101243.03;1999881;87;27708;-63
2022/09/05 10:56:27;;;;;;;4.60;3.22;;;;;;;22.10;46.67;101238.08;2001943;87;27720;-63
2022/09/05 11:00:09;;;;;;;4.37;3.62;;;;;;;22.13;47.80;101233.22;1999148;88;27751;-62
2022/09/05 11:03:44;;;;;;;3.33;3.02;;;;;;;22.21;47.30;101227.11;1917828;90;29999;-62
2022/09/05 11:07:22;;;;;;;;;;;;;;;22.21;47.07;101227.11;1922089;90;27726;-64
2022/09/05 11:11:02;;;;;;;4.62;3.70;;;;;;;22.22;46.98;101213.83;1926024;91;27844;-63
2022/09/05 11:15:00;;;;;;;3.60;3.30;;;;;;;22.16;46.08;101215.22;1925465;92;27842;-63
2022/09/05 11:19:02;;;;;;;4.10;3.27;;;;;;;22.16;46.65;101215.73;1926056;91;27693;-63
2022/09/05 11:22:23;;;;;;;3.77;3.02;;;;;;;22.29;46.12;101215.54;1918259;91;28829;-63
2022/09/05 11:25:46;;;;;;;4.12;2.83;;;;;;;22.40;46.30;101207.80;1982352;88;27810;-65
2022/09/05 11:29:16;;;;;;;4.30;2.50;;;;;;;22.54;45.91;101208.03;1961637;89;27643;-65
2022/09/05 11:33:28;;;;;;;6.25;2.87;;;;;;;22.69;45.64;101206.70;1961451;89;27789;-65
2022/09/05 11:36:50;;;;;;;5.12;2.98;;;;;;;22.82;45.40;101200.16;1957817;90;28806;-65
2022/09/05 11:40:51;;;;;;;3.92;2.60;;;;;;;22.97;44.63;101201.55;2018108;85;28984;-68
2022/09/05 11:44:36;;;;;;;4.17;2.72;;;;;;;23.11;44.91;101196.23;2091074;85;28179;-66
2022/09/05 11:48:07;;;;;;;3.62;2.80;;;;;;;23.21;44.55;101194.42;2091384;85;33558;-65
2022/09/05 11:51:58;;;;;;;3.40;2.52;;;;;;;23.24;43.70;101193.80;2087951;85;27564;-66
2022/09/05 11:56:10;;;;;;;3.37;2.62;;;;;;;23.24;43.97;101191.06;2091116;85;28682;-67
2022/09/05 12:00:13;;;;;;;2.47;2.22;;;;;;;23.21;42.70;101191.69;2091132;85;28785;-67
2022/09/05 12:04:22;;;;;;;4.28;2.67;;;;;;;23.21;43.38;101181.27;2075746;85;27924;-67
2022/09/05 12:08:00;;;;;;;4.22;2.98;;;;;;;23.29;43.52;101188.79;2056281;86;27709;-66
2022/09/05 12:11:25;;;;;;;2.65;2.40;;;;;;;23.32;43.46;101187.16;1972701;90;27799;-67
2022/09/05 12:15:03;;;;;;;3.52;2.70;;;;;;;23.41;42.95;101193.14;1938356;91;28085;-67
2022/09/05 12:18:41;;;;;;;3.35;2.60;;;;;;;23.52;42.64;101186.71;1972794;90;28795;-66
2022/09/05 12:22:24;;;;;;;4.58;2.60;;;;;;;23.57;42.80;101184.43;1938415;91;27922;-67
2022/09/05 12:26:01;;;;;;;3.33;3.02;;;;;;;23.67;42.63;101176.22;1955948;90;27759;-67
2022/09/05 12:29:23;;;;;;;6.08;2.75;;;;;;;23.74;42.60;101176.03;1954413;91;27768;-67
2022/09/05 12:32:52;;;;;;;3.47;2.70;;;;;;;23.65;41.71;101183.21;1954123;91;27762;-67
2022/09/05 12:36:17;;;;;;;5.47;3.00;;;;;;;23.58;41.99;101177.08;1933894;92;28855;-66
2022/09/05 12:39:43;;;;;;;4.20;2.50;;;;;;;23.55;42.30;101170.02;1955661;91;27768;-67
2022/09/05 12:43:06;;;;;;;4.72;2.83;;;;;;;23.49;42.36;101167.84;1955592;90;27720;-65
2022/09/05 12:46:36;;;;;;;3.30;2.52;;;;;;;23.42;42.36;101162.55;1955588;90;27764;-66
2022/09/05 12:50:05;;;;;;;5.53;2.98;;;;;;;23.42;42.00;101167.53;2030617;87;27755;-67
2022/09/05 12:53:24;;;;;;;5.20;2.80;;;;;;;23.33;42.08;101156.92;1993926;89;30614;-67
2022/09/05 12:56:55;;;;;;;2.85;2.30;;;;;;;23.20;41.83;101161.74;1993954;89;27712;-67
2022/09/05 13:00:21;;;;;;;7.30;3.22;;;;;;;23.15;41.62;101161.28;1993950;89;27654;-67
2022/09/05 13:04:20;;;;;;;2.70;2.50;;;;;;;23.10;42.32;101163.06;2012679;87;27714;-66
2022/09/05 13:07:54;;;;;;;5.53;2.72;;;;;;;23.08;42.70;101158.75;2027913;87;27661;-67
2022/09/05 13:11:13;;;;;;;3.37;2.27;;;;;;;23.06;41.86;101159.75;2027990;87;28895;-67
2022/09/05 13:15:04;;;;;;;3.10;2.40;;;;;;;23.02;42.25;101151.94;2027994;87;27782;-67
2022/09/05 13:18:29;;;;;;;3.33;2.77;;;;;;;23.00;42.06;101157.55;2028111;87;27762;-66
2022/09/05 13:21:51;;;;;;;;;;;;;;;23.06;42.04;101154.28;2029276;87;28224;-67
2022/09/05 13:25:25;;;;;;;3.15;2.40;;;;;;;23.16;42.17;101149.34;2018324;87;28685;-67
2022/09/05 13:28:57;;;;;;;4.55;2.83;;;;;;;23.21;42.02;101150.69;1989545;88;28847;-67
2022/09/05 13:32:30;;;;;;;2.80;2.60;;;;;;;23.28;42.57;101148.27;1989095;89;27969;-67
2022/09/05 13:36:09;;;;;;;3.47;2.17;;;;;;;23.34;41.52;101147.72;2016305;87;27764;-68
2022/09/05 13:39:26;;;;;;;3.22;2.58;;;;;;;23.47;41.67;101138.39;2019923;88;27671;-68
2022/09/05 13:43:05;;;;;;;3.15;2.42;;;;;;;23.56;41.57;101133.95;2019781;88;27723;-67
2022/09/05 13:46:37;;;;;;;3.22;2.83;;;;;;;23.56;40.68;101138.05;2019849;88;30629;-67
2022/09/05 13:50:21;;;;;;;2.80;2.37;;;;;;;23.49;40.88;101132.28;2019855;88;27709;-67
2022/09/05 13:53:50;;;;;;;7.30;2.75;;;;;;;23.43;40.38;101130.09;2040370;86;27714;-67
2022/09/05 13:57:25;;;;;;;3.05;2.20;;;;;;;23.39;40.45;101124.56;2053230;86;27615;-68
2022/09/05 14:01:12;;;;;;;2.87;2.55;;;;;;;23.28;40.28;101118.19;2052965;86;28714;-67
2022/09/05 14:05:04;;;;;;;2.50;2.30;;;;;;;23.20;40.98;101118.88;2053089;86;30649;-67
2022/09/05 14:08:53;;;;;;;4.00;2.60;;;;;;;23.18;40.63;101111.80;2053065;86;27643;-67
2022/09/05 14:12:38;;;;;;;5.08;2.55;;;;;;;23.13;40.54;101119.55;2053145;86;27572;-66
2022/09/05 14:16:21;;;;;;;4.35;2.47;;;;;;;23.13;40.27;101115.45;2052859;86;27782;-71
2022/09/05 14:23:09;;;;;;;3.75;2.40;;;;;;;23.19;40.76;101102.60;2033684;87;28768;-68
2022/09/05 14:26:50;;;;;;;3.08;2.37;;;;;;;23.23;40.79;101104.09;2037794;87;27789;-65
2022/09/05 14:30:35;;;;;;;7.50;2.83;;;;;;;23.21;40.53;101105.58;2040233;87;27683;-66
2022/09/05 14:34:07;;;;;;;4.03;2.30;;;;;;;23.20;39.62;101097.50;2031290;87;29718;-71
2022/09/05 14:37:41;;;;;;;2.85;2.20;;;;;;;23.16;39.77;101104.24;1976304;89;32361;-69
2022/09/05 14:41:19;;;;;;;5.15;2.52;;;;;;;23.01;39.35;101103.26;1978505;90;34216;-69
2022/09/05 14:44:49;;;;;;;4.53;2.58;;;;;;;22.97;40.20;101096.84;1965916;90;30434;-67
2022/09/05 14:48:27;;;;;;;3.92;2.40;;;;;;;22.94;40.45;101090.28;1964181;89;27809;-68
2022/09/05 14:51:45;;;;;;;6.37;2.77;;;;;;;22.91;40.53;101085.45;1958040;90;27857;-67
2022/09/05 14:54:53;;;;;;;4.33;2.58;;;;;;;22.86;40.68;101081.41;1961650;90;31683;-67
2022/09/05 14:57:55;;;;;;;4.60;2.75;;;;;;;22.80;40.79;101077.37;1961514;90;33033;-67
2022/09/05 15:01:02;;;;;;;2.58;2.30;;;;;;;22.74;40.27;101080.15;1949452;90;30668;-68
2022/09/05 15:04:05;;;;;;;4.08;2.62;;;;;;;22.67;39.70;101086.30;1964943;89;28209;-67
2022/09/05 15:07:25;;;;;;;3.55;2.70;;;;;;;22.57;40.26;101082.14;2000363;89;28697;-68
2022/09/05 15:10:45;;;;;;;4.20;2.37;;;;;;;22.51;40.24;101078.58;2000346;88;31080;-69
2022/09/05 15:14:04;;;;;;;3.83;2.65;;;;;;;22.44;40.14;101083.20;2000636;87;34239;-67
2022/09/05 15:17:05;;;;;;;5.33;2.50;;;;;;;22.35;40.52;101082.62;2033121;86;29352;-68
2022/09/05 15:20:08;;;;;;;2.47;2.25;;;;;;;22.25;40.48;101082.55;2050745;86;27771;-68
2022/09/05 15:23:20;;;;;;;3.52;2.20;;;;;;;22.16;40.38;101078.77;2054403;86;28642;-68
2022/09/05 15:26:21;;;;;;;3.90;2.45;;;;;;;22.09;40.49;101078.91;2061178;85;31091;-66
2022/09/05 15:29:35;;;;;;;5.03;2.60;;;;;;;22.01;40.66;101081.45;2059731;86;33989;-67
2022/09/05 15:32:37;;;;;;;5.22;2.62;;;;;;;21.96;40.93;101073.67;2060034;86;29394;-65
2022/09/05 15:35:42;;;;;;;3.85;2.67;;;;;;;21.92;40.90;101075.44;2059967;85;27845;-66
2022/09/05 15:38:47;;;;;;;2.60;2.40;;;;;;;21.89;41.14;101076.54;2060210;86;29548;-67
2022/09/05 15:41:54;;;;;;;3.00;2.37;;;;;;;21.83;40.88;101075.20;2059524;86;33061;-66
2022/09/05 15:45:00;;;;;;;4.80;2.72;;;;;;;21.81;41.16;101079.92;2058467;86;33741;-68
2022/09/05 15:48:19;;;;;;;4.28;2.52;;;;;;;21.79;41.04;101073.73;2026550;87;29382;-66
2022/09/05 15:51:55;;;;;;;3.98;2.37;;;;;;;21.78;40.87;101073.36;2026363;87;27828;-66
2022/09/05 15:55:20;;;;;;;4.25;2.70;;;;;;;21.77;40.99;101069.41;2026617;87;28666;-66
2022/09/05 15:58:21;;;;;;;2.52;2.33;;;;;;;21.78;41.25;101065.17;2026595;87;31051;-66
2022/09/05 16:01:31;;;;;;;3.10;2.30;;;;;;;21.79;41.36;101065.55;2026578;87;34067;-67
2022/09/05 16:04:33;;;;;;;2.90;2.50;;;;;;;21.79;41.41;101063.33;2025374;87;29330;-67
2022/09/05 16:07:46;;;;;;;3.22;2.17;;;;;;;21.75;41.54;101065.95;2026258;87;27642;-66
2022/09/05 16:10:48;;;;;;;4.67;2.40;;;;;;;21.70;41.55;101062.25;2026324;87;29062;-66
2022/09/05 16:13:59;;;;;;;7.33;2.55;;;;;;;21.66;41.32;101067.59;2029823;86;31440;-67
2022/09/05 16:17:19;;;;;;;7.17;2.70;;;;;;;21.59;41.60;101066.36;2047111;86;33890;-66
2022/09/05 16:20:31;;;;;;;4.00;2.40;;;;;;;21.53;41.63;101063.63;2059411;86;30525;-66
2022/09/05 16:23:47;;;;;;;2.47;2.25;;;;;;;21.46;41.85;101067.37;2054458;85;27715;-67
2022/09/05 16:26:59;;;;;;;6.70;2.80;;;;;;;21.42;41.99;101065.03;2049947;86;28784;-68
2022/09/05 16:30:12;;;;;;;3.15;2.70;;;;;;;21.35;42.11;101065.53;2068425;86;32304;-67
2022/09/05 16:33:28;;;;;;;3.85;2.65;;;;;;;21.28;42.17;101064.33;2040971;86;33066;-67
2022/09/05 16:37:18;;;;;;;5.17;3.10;;;;;;;21.19;42.34;101064.59;2068746;86;28824;-67
2022/09/05 16:40:34;;;;;;;8.55;2.80;;;;;;;21.11;42.52;101067.07;2058373;86;27692;-66